Time;durP1;ratioP1;P1;durP2;ratioP2;P2;SDS_P1;SDS_P2;PMS_P1;PMS_P2;Temp;Humidity;BMP_temperature;BMP_pressure;BME280_temperature;BME280_humidity;BME280_pressure;Samples;Min_cycle;Max_cycle;Signal;HPM_P1;HPM_P2
2022/03/04 00:01:55;;;;;;;18.57;13.00;;;2.90;98.60;;;;;;5054391;28;20444;-69
2022/03/04 00:04:21;;;;;;;18.17;13.10;;;2.90;98.70;;;;;;5054038;28;20563;-69
2022/03/04 00:06:47;;;;;;;16.43;13.33;;;2.90;98.80;;;;;;5053917;28;20471;-69
2022/03/04 00:09:13;;;;;;;18.63;14.10;;;2.80;98.90;;;;;;5052081;28;21006;-70
2022/03/04 00:11:39;;;;;;;15.93;12.70;;;2.90;99.00;;;;;;5053491;28;20170;-69
2022/03/04 00:14:04;;;;;;;18.80;13.83;;;2.80;99.10;;;;;;5054124;28;20178;-70
2022/03/04 00:16:31;;;;;;;16.67;14.30;;;2.80;99.10;;;;;;5053998;28;20171;-69
2022/03/04 00:19:07;;;;;;;17.37;13.10;;;2.80;99.20;;;;;;5053274;28;20200;-69
2022/03/04 00:21:51;;;;;;;16.97;13.77;;;2.80;99.20;;;;;;5053827;28;20437;-69
2022/03/04 00:24:18;;;;;;;17.13;13.67;;;2.70;99.40;;;;;;5052167;28;20475;-69
2022/03/04 00:26:45;;;;;;;18.10;13.97;;;2.70;99.60;;;;;;5044857;28;20415;-69
2022/03/04 00:29:11;;;;;;;17.50;13.10;;;2.70;99.60;;;;;;5033934;28;20863;-69
2022/03/04 00:31:38;;;;;;;19.00;14.27;;;2.70;99.80;;;;;;5033613;28;20767;-68
2022/03/04 00:34:08;;;;;;;18.83;13.70;;;2.70;99.90;;;;;;5033516;28;20902;-68
2022/03/04 00:36:36;;;;;;;17.33;14.20;;;2.60;99.90;;;;;;5034001;28;20398;-69
2022/03/04 00:39:06;;;;;;;16.10;13.60;;;2.60;99.90;;;;;;5033726;28;20902;-69
2022/03/04 00:41:32;;;;;;;16.77;13.17;;;2.60;99.90;;;;;;5033538;28;20588;-69
2022/03/04 00:43:57;;;;;;;16.83;14.13;;;2.60;99.90;;;;;;5033874;28;20440;-69
2022/03/04 00:46:23;;;;;;;18.90;13.33;;;2.50;99.90;;;;;;5033401;28;20179;-69
2022/03/04 00:48:49;;;;;;;17.87;13.47;;;2.50;99.90;;;;;;5033009;28;20165;-69
2022/03/04 00:51:15;;;;;;;19.97;14.53;;;2.50;99.90;;;;;;5032693;28;20929;-69
2022/03/04 00:53:41;;;;;;;17.20;14.43;;;2.40;99.90;;;;;;5032801;28;20182;-69
2022/03/04 00:56:08;;;;;;;15.93;12.60;;;2.50;99.90;;;;;;5032397;28;20410;-69
2022/03/04 00:58:36;;;;;;;17.37;14.13;;;2.40;99.90;;;;;;5021274;28;20449;-69
2022/03/04 01:01:03;;;;;;;17.97;13.73;;;2.30;99.90;;;;;;5032003;28;20526;-69
2022/03/04 01:03:28;;;;;;;19.27;14.10;;;2.30;99.90;;;;;;5032892;28;20404;-69
2022/03/04 01:05:54;;;;;;;17.37;14.20;;;2.20;99.90;;;;;;5032605;28;20409;-69
2022/03/04 01:08:20;;;;;;;16.37;13.63;;;2.30;99.90;;;;;;5035435;28;20222;-69
2022/03/04 01:10:46;;;;;;;18.47;14.67;;;2.20;99.90;;;;;;5047427;28;20189;-69
2022/03/04 01:13:12;;;;;;;17.23;13.53;;;2.20;99.90;;;;;;5054409;28;20417;-69
2022/03/04 01:15:38;;;;;;;20.27;14.17;;;2.20;99.90;;;;;;5056279;28;20401;-69
2022/03/04 01:18:04;;;;;;;18.93;14.57;;;2.10;99.90;;;;;;5056059;28;20432;-69
2022/03/04 01:20:31;;;;;;;18.37;14.27;;;2.10;99.90;;;;;;5055817;28;20194;-69
2022/03/04 01:22:57;;;;;;;18.93;14.10;;;2.10;99.90;;;;;;5056326;28;20404;-69
2022/03/04 01:25:23;;;;;;;16.17;13.60;;;2.10;99.90;;;;;;5055634;28;20408;-69
2022/03/04 01:27:48;;;;;;;19.70;14.73;;;2.20;99.90;;;;;;5054609;28;20437;-69
2022/03/04 01:30:14;;;;;;;17.33;13.83;;;2.20;99.90;;;;;;5054687;28;20437;-69
2022/03/04 01:32:40;;;;;;;16.80;13.93;;;2.20;99.90;;;;;;5056052;28;20190;-69
2022/03/04 01:35:08;;;;;;;15.30;13.07;;;2.10;99.90;;;;;;5055944;28;20162;-68
2022/03/04 01:37:36;;;;;;;17.20;14.77;;;2.00;99.90;;;;;;5055554;28;20435;-68
2022/03/04 01:40:04;;;;;;;19.30;14.70;;;2.10;99.90;;;;;;5054916;28;20493;-69
2022/03/04 01:42:30;;;;;;;20.47;16.10;;;2.00;99.90;;;;;;5054224;28;20416;-69
2022/03/04 01:44:55;;;;;;;18.10;14.93;;;2.10;99.90;;;;;;5054373;28;20941;-69
2022/03/04 01:47:22;;;;;;;16.05;13.40;;;2.10;99.90;;;;;;5018083;28;1092861;-68
2022/03/04 01:49:47;;;;;;;20.13;14.23;;;2.00;99.90;;;;;;5057346;28;20175;-68
2022/03/04 01:52:13;;;;;;;19.33;14.47;;;1.90;99.90;;;;;;5057238;28;20409;-69
2022/03/04 01:54:39;;;;;;;19.47;14.80;;;1.90;99.90;;;;;;5056851;28;20182;-68
2022/03/04 01:57:07;;;;;;;19.83;15.10;;;1.90;99.90;;;;;;5056818;28;20218;-68
2022/03/04 01:59:33;;;;;;;16.47;14.40;;;1.90;99.90;;;;;;5055596;28;20179;-69
2022/03/04 02:01:59;;;;;;;18.17;14.07;;;1.80;99.90;;;;;;5057110;28;20458;-68
2022/03/04 02:04:26;;;;;;;18.23;13.77;;;1.90;99.90;;;;;;5055464;28;20218;-69
2022/03/04 02:06:52;;;;;;;22.17;15.20;;;1.90;99.90;;;;;;5056779;28;20193;-69
2022/03/04 02:09:18;;;;;;;19.63;14.90;;;1.90;99.90;;;;;;5055738;28;20405;-69
2022/03/04 02:11:44;;;;;;;20.23;13.70;;;1.90;99.90;;;;;;5055208;28;20455;-68
2022/03/04 02:14:11;;;;;;;19.07;15.17;;;2.00;99.90;;;;;;5056054;28;20413;-68
2022/03/04 02:16:47;;;;;;;16.30;13.17;;;1.90;99.90;;;;;;5055901;28;20424;-68
2022/03/04 02:19:14;;;;;;;19.00;15.23;;;1.90;99.90;;;;;;5055231;28;20838;-68
2022/03/04 02:21:48;;;;;;;16.93;13.47;;;1.90;99.90;;;;;;5056391;28;20460;-68
2022/03/04 02:24:14;;;;;;;17.27;13.80;;;1.80;99.90;;;;;;5055739;28;20745;-68
2022/03/04 02:26:39;;;;;;;20.53;15.50;;;1.80;99.90;;;;;;5055281;28;20562;-69
2022/03/04 02:29:05;;;;;;;18.20;15.00;;;1.80;99.90;;;;;;5056537;28;20167;-68
2022/03/04 02:31:31;;;;;;;20.50;16.20;;;1.80;99.90;;;;;;5055406;28;20177;-68
2022/03/04 02:33:56;;;;;;;17.73;15.83;;;1.80;99.90;;;;;;5055032;28;20929;-68
2022/03/04 02:36:22;;;;;;;16.93;14.33;;;1.80;99.90;;;;;;5034646;28;20178;-69
2022/03/04 02:38:48;;;;;;;18.33;14.97;;;1.80;99.90;;;;;;5016283;28;20659;-68
2022/03/04 02:41:13;;;;;;;21.00;14.90;;;1.80;99.90;;;;;;5031529;28;20202;-68
2022/03/04 02:43:39;;;;;;;18.17;14.80;;;1.80;99.90;;;;;;5035452;28;20171;-69
2022/03/04 02:46:05;;;;;;;17.73;14.70;;;1.70;99.90;;;;;;5035998;28;20641;-68
2022/03/04 02:48:30;;;;;;;22.20;16.33;;;1.70;99.90;;;;;;5035709;28;20617;-68
2022/03/04 02:50:56;;;;;;;19.77;15.43;;;1.70;99.90;;;;;;5035989;28;20643;-69
2022/03/04 02:53:22;;;;;;;20.20;15.10;;;1.70;99.90;;;;;;5035535;28;20172;-68
2022/03/04 02:55:47;;;;;;;18.23;14.33;;;1.70;99.90;;;;;;5035256;28;20250;-68
2022/03/04 02:58:13;;;;;;;23.30;16.17;;;1.70;99.90;;;;;;5035591;28;20185;-68
2022/03/04 03:00:38;;;;;;;18.77;14.50;;;1.70;99.90;;;;;;5036062;28;20194;-68
2022/03/04 03:03:05;;;;;;;19.33;14.60;;;1.70;99.90;;;;;;5035638;28;20164;-69
2022/03/04 03:05:30;;;;;;;16.83;15.03;;;1.70;99.90;;;;;;5035414;28;20182;-69
2022/03/04 03:07:56;;;;;;;21.30;16.30;;;1.60;99.90;;;;;;5034885;28;20433;-69
2022/03/04 03:10:22;;;;;;;20.70;15.53;;;1.60;99.90;;;;;;5039600;28;20162;-69
2022/03/04 03:12:47;;;;;;;23.57;16.77;;;1.60;99.90;;;;;;5054938;28;20408;-68
2022/03/04 03:15:15;;;;;;;18.97;14.70;;;1.50;99.90;;;;;;5055141;28;20236;-69
2022/03/04 03:17:41;;;;;;;18.13;14.30;;;1.50;99.90;;;;;;5055160;28;20189;-69
2022/03/04 03:20:08;;;;;;;23.07;16.50;;;1.60;99.90;;;;;;5055051;28;20495;-68
2022/03/04 03:22:34;;;;;;;21.30;16.03;;;1.60;99.90;;;;;;5055008;28;20413;-68
2022/03/04 03:25:00;;;;;;;18.53;15.00;;;1.60;99.90;;;;;;5054545;28;20401;-67
2022/03/04 03:27:25;;;;;;;16.27;14.27;;;1.60;99.90;;;;;;5054807;28;20427;-68
2022/03/04 03:29:51;;;;;;;19.40;15.63;;;1.60;99.90;;;;;;5054841;28;20169;-69
2022/03/04 03:32:17;;;;;;;22.27;16.37;;;1.50;99.90;;;;;;5055410;28;20254;-69
2022/03/04 03:34:42;;;;;;;18.60;14.80;;;1.40;99.90;;;;;;5056449;28;20174;-70
2022/03/04 03:37:09;;;;;;;19.97;14.93;;;1.50;99.90;;;;;;5056170;28;20186;-69
2022/03/04 03:39:35;;;;;;;18.70;14.80;;;1.50;99.90;;;;;;5055962;28;20177;-69
2022/03/04 03:42:01;;;;;;;19.47;15.30;;;1.50;99.90;;;;;;5054148;28;20456;-69
2022/03/04 03:44:27;;;;;;;22.60;15.60;;;1.40;99.90;;;;;;5055836;28;20401;-69
2022/03/04 03:46:53;;;;;;;20.53;15.90;;;1.40;99.90;;;;;;5055657;28;20448;-69
2022/03/04 03:49:18;;;;;;;21.23;16.13;;;1.40;99.90;;;;;;5053252;28;20171;-71
2022/03/04 03:51:44;;;;;;;18.77;15.73;;;1.30;99.90;;;;;;5023304;28;20595;-69
2022/03/04 03:54:09;;;;;;;19.23;15.53;;;1.30;99.90;;;;;;5035047;28;20170;-69
2022/03/04 03:56:36;;;;;;;18.93;16.07;;;1.30;99.90;;;;;;5032898;28;20191;-69
2022/03/04 03:59:01;;;;;;;21.20;16.47;;;1.30;99.90;;;;;;5035500;28;20532;-69
2022/03/04 04:01:27;;;;;;;21.30;16.90;;;1.30;99.90;;;;;;5035065;28;20455;-69
2022/03/04 04:03:53;;;;;;;24.90;16.80;;;1.30;99.90;;;;;;5034939;28;20258;-69
2022/03/04 04:06:18;;;;;;;18.30;14.37;;;1.30;99.90;;;;;;5034877;28;20170;-70
2022/03/04 04:08:44;;;;;;;18.67;15.77;;;1.30;99.90;;;;;;5034878;28;20160;-69
2022/03/04 04:11:09;;;;;;;20.93;16.10;;;1.20;99.90;;;;;;5045166;28;20225;-69
2022/03/04 04:13:35;;;;;;;18.67;15.40;;;1.20;99.90;;;;;;5054160;28;20595;-69
2022/03/04 04:16:01;;;;;;;20.93;17.00;;;1.20;99.90;;;;;;5054058;28;20211;-69
2022/03/04 04:18:26;;;;;;;23.30;17.77;;;1.10;99.90;;;;;;5052853;28;20247;-69
2022/03/04 04:20:52;;;;;;;20.57;16.47;;;1.10;99.90;;;;;;5054631;28;20650;-69
2022/03/04 04:23:18;;;;;;;21.13;15.67;;;1.10;99.90;;;;;;5054487;28;20174;-69
2022/03/04 04:25:43;;;;;;;22.57;17.63;;;1.10;99.90;;;;;;5053696;28;20163;-69
2022/03/04 04:28:09;;;;;;;21.10;15.87;;;1.10;99.90;;;;;;5053907;28;20569;-69
2022/03/04 04:30:34;;;;;;;17.53;15.07;;;1.10;99.90;;;;;;5038888;28;20220;-69
2022/03/04 04:33:00;;;;;;;19.13;15.47;;;1.10;99.90;;;;;;5034061;28;20191;-69
2022/03/04 04:35:26;;;;;;;20.23;15.80;;;1.00;99.90;;;;;;5032508;28;20216;-69
2022/03/04 04:37:51;;;;;;;21.13;15.77;;;1.00;99.90;;;;;;5034153;28;20197;-70
2022/03/04 04:40:17;;;;;;;22.30;16.40;;;1.10;99.90;;;;;;5033388;28;20569;-69
2022/03/04 04:42:42;;;;;;;19.33;16.97;;;1.10;99.90;;;;;;5036571;28;20166;-69
2022/03/04 04:45:09;;;;;;;23.57;18.03;;;1.10;99.90;;;;;;5038304;28;20215;-69
2022/03/04 04:47:35;;;;;;;22.10;18.37;;;1.00;99.90;;;;;;5056285;22;20230;-68
2022/03/04 04:50:01;;;;;;;24.23;17.50;;;1.10;99.90;;;;;;5037272;28;20412;-68
2022/03/04 04:52:26;;;;;;;20.33;15.90;;;1.10;99.90;;;;;;5035851;28;20409;-68
2022/03/04 04:54:53;;;;;;;17.20;15.37;;;1.00;99.90;;;;;;5036981;28;20397;-69
2022/03/04 04:57:19;;;;;;;20.97;16.87;;;1.00;99.90;;;;;;5037123;28;20191;-68
2022/03/04 04:59:44;;;;;;;23.60;18.13;;;1.00;99.90;;;;;;5036808;28;20480;-68
2022/03/04 05:02:10;;;;;;;21.90;17.07;;;1.00;99.90;;;;;;5027450;28;20202;-69
2022/03/04 05:04:36;;;;;;;24.87;18.70;;;1.00;99.90;;;;;;5017327;28;20539;-68
2022/03/04 05:07:02;;;;;;;21.60;17.37;;;1.00;99.90;;;;;;5015644;28;20177;-69
2022/03/04 05:09:28;;;;;;;23.37;16.40;;;1.10;99.90;;;;;;5016840;28;20215;-68
2022/03/04 05:11:54;;;;;;;22.27;17.10;;;1.00;99.90;;;;;;5033476;28;20424;-69
2022/03/04 05:14:19;;;;;;;23.00;16.67;;;1.00;99.90;;;;;;5036532;28;20166;-68
2022/03/04 05:16:45;;;;;;;20.73;15.60;;;1.00;99.90;;;;;;5036777;28;20177;-68
2022/03/04 05:19:10;;;;;;;22.93;16.97;;;1.00;99.90;;;;;;5036503;28;20222;-68
2022/03/04 05:21:36;;;;;;;22.60;17.17;;;1.00;99.90;;;;;;5036997;28;20281;-68
2022/03/04 05:24:03;;;;;;;20.80;16.73;;;0.90;99.90;;;;;;5036742;28;20201;-67
2022/03/04 05:26:34;;;;;;;21.80;17.60;;;0.90;99.90;;;;;;5036067;28;20173;-69
2022/03/04 05:29:02;;;;;;;21.10;15.57;;;0.90;99.90;;;;;;5036607;28;20463;-67
2022/03/04 05:31:28;;;;;;;24.60;18.87;;;0.90;99.90;;;;;;5036782;28;20401;-68
2022/03/04 05:33:54;;;;;;;21.63;18.20;;;0.70;99.90;;;;;;5036677;28;20410;-68
2022/03/04 05:36:21;;;;;;;25.93;18.13;;;0.70;99.90;;;;;;5036747;28;20415;-69
2022/03/04 05:38:48;;;;;;;25.20;17.97;;;0.70;99.90;;;;;;5036258;28;20785;-69
2022/03/04 05:41:15;;;;;;;22.80;16.77;;;0.70;99.90;;;;;;5035544;28;20989;-69
2022/03/04 05:43:41;;;;;;;24.90;18.50;;;0.70;99.90;;;;;;5036612;28;20427;-68
2022/03/04 05:46:06;;;;;;;24.97;16.37;;;0.80;99.90;;;;;;5037091;28;20406;-69
2022/03/04 05:48:32;;;;;;;25.17;18.33;;;0.70;99.90;;;;;;5036009;28;20537;-69
2022/03/04 05:50:58;;;;;;;22.73;16.70;;;0.70;99.90;;;;;;5035924;28;20173;-69
2022/03/04 05:53:23;;;;;;;26.70;18.00;;;0.70;99.90;;;;;;5035500;28;20176;-68
2022/03/04 05:55:49;;;;;;;23.83;17.90;;;0.70;99.90;;;;;;5035763;28;20290;-68
2022/03/04 05:58:14;;;;;;;21.33;17.50;;;0.60;99.90;;;;;;5035634;28;20564;-68
2022/03/04 06:00:40;;;;;;;23.73;18.67;;;0.70;99.90;;;;;;5034462;28;20663;-68
2022/03/04 06:03:07;;;;;;;23.93;17.80;;;0.60;99.90;;;;;;5035685;28;20222;-68
2022/03/04 06:05:33;;;;;;;23.20;16.70;;;0.70;99.90;;;;;;5035833;28;20173;-68
2022/03/04 06:07:59;;;;;;;22.30;17.40;;;0.80;99.90;;;;;;5034346;28;20456;-68
2022/03/04 06:10:25;;;;;;;22.17;17.00;;;0.70;99.90;;;;;;5034592;28;20812;-69
2022/03/04 06:12:51;;;;;;;24.53;17.63;;;0.70;99.90;;;;;;5035511;28;20169;-68
2022/03/04 06:15:16;;;;;;;27.30;19.40;;;0.70;99.90;;;;;;5034340;28;20772;-68
2022/03/04 06:17:50;;;;;;;22.17;18.10;;;0.80;99.90;;;;;;5035668;28;20618;-68
2022/03/04 06:20:16;;;;;;;25.37;18.57;;;0.80;99.90;;;;;;5034359;28;20190;-69
2022/03/04 06:22:43;;;;;;;27.87;20.77;;;0.80;99.90;;;;;;5035720;28;20399;-68
2022/03/04 06:25:10;;;;;;;24.13;19.67;;;0.80;99.90;;;;;;5035193;28;20408;-68
2022/03/04 06:27:36;;;;;;;19.60;16.37;;;0.80;99.90;;;;;;5035180;28;20515;-68
2022/03/04 06:30:04;;;;;;;28.70;18.43;;;0.70;99.90;;;;;;5035272;28;20405;-69
2022/03/04 06:32:29;;;;;;;26.80;18.20;;;0.70;99.90;;;;;;5035286;28;20400;-68
2022/03/04 06:34:55;;;;;;;25.57;18.30;;;0.80;99.90;;;;;;5026945;28;20413;-69
2022/03/04 06:37:21;;;;;;;19.70;15.33;;;0.80;99.90;;;;;;5015063;28;20197;-68
2022/03/04 06:39:46;;;;;;;20.70;16.20;;;0.90;99.90;;;;;;5015155;28;20524;-68
2022/03/04 06:42:12;;;;;;;23.27;18.30;;;0.90;99.90;;;;;;5013441;28;20195;-70
2022/03/04 06:44:38;;;;;;;23.27;17.40;;;1.00;99.90;;;;;;5003873;28;20202;-68
2022/03/04 06:47:03;;;;;;;20.80;17.93;;;1.00;99.90;;;;;;5014962;28;20625;-69
2022/03/04 06:49:29;;;;;;;22.27;18.20;;;1.00;99.90;;;;;;5015266;28;20171;-68
2022/03/04 06:51:54;;;;;;;23.60;18.00;;;1.00;99.90;;;;;;5013859;28;20210;-70
2022/03/04 06:54:20;;;;;;;25.63;18.53;;;1.00;99.90;;;;;;5015086;28;20509;-68
2022/03/04 06:56:46;;;;;;;24.90;20.23;;;1.00;99.90;;;;;;5013049;28;20186;-69
2022/03/04 06:59:11;;;;;;;25.70;18.77;;;1.10;99.90;;;;;;5014691;28;20411;-68
2022/03/04 07:01:37;;;;;;;24.67;18.80;;;1.10;99.90;;;;;;5014684;28;20238;-68
2022/03/04 07:04:03;;;;;;;25.77;19.20;;;1.10;99.90;;;;;;5014510;28;20160;-68
2022/03/04 07:06:28;;;;;;;25.70;17.67;;;1.20;99.90;;;;;;5014229;28;20522;-69
2022/03/04 07:08:54;;;;;;;24.10;18.37;;;1.30;99.90;;;;;;5014667;28;20186;-68
2022/03/04 07:11:19;;;;;;;19.73;16.23;;;1.30;99.90;;;;;;5017737;28;20251;-69
2022/03/04 07:13:45;;;;;;;24.13;18.30;;;1.30;99.90;;;;;;5006363;28;20659;-68
2022/03/04 07:16:11;;;;;;;23.20;18.07;;;1.40;99.90;;;;;;4994980;28;20175;-68
2022/03/04 07:18:36;;;;;;;24.17;17.27;;;1.40;99.90;;;;;;4997597;28;20695;-69
2022/03/04 07:21:02;;;;;;;22.40;16.80;;;1.40;99.90;;;;;;5034685;28;20205;-70
2022/03/04 07:23:28;;;;;;;21.90;17.70;;;1.50;99.90;;;;;;5032836;28;20219;-68
2022/03/04 07:25:53;;;;;;;24.90;17.80;;;1.50;99.90;;;;;;5034041;28;20167;-68
2022/03/04 07:28:19;;;;;;;23.63;18.50;;;1.60;99.90;;;;;;5033913;28;20426;-68
2022/03/04 07:30:45;;;;;;;22.33;17.93;;;1.60;99.90;;;;;;5034120;28;20640;-69
2022/03/04 07:33:11;;;;;;;25.00;18.10;;;1.70;99.90;;;;;;5034065;28;20225;-68
2022/03/04 07:35:41;;;;;;;24.33;18.20;;;1.90;99.90;;;;;;5033323;28;20409;-67
2022/03/04 07:38:07;;;;;;;21.67;17.80;;;2.00;99.90;;;;;;5034354;28;20213;-67
2022/03/04 07:40:32;;;;;;;28.17;17.70;;;2.20;99.90;;;;;;5033976;28;20460;-70
2022/03/04 07:42:58;;;;;;;22.20;17.40;;;2.20;99.90;;;;;;5033629;28;20525;-69
2022/03/04 07:45:24;;;;;;;27.07;18.90;;;2.30;99.90;;;;;;5034028;28;20175;-69
2022/03/04 07:47:50;;;;;;;23.27;17.87;;;2.60;99.90;;;;;;5033669;28;20748;-70
2022/03/04 07:50:16;;;;;;;21.43;17.83;;;2.70;99.90;;;;;;5033283;28;20410;-67
2022/03/04 07:52:43;;;;;;;21.03;16.90;;;2.80;99.90;;;;;;5034140;28;20213;-68
2022/03/04 07:55:10;;;;;;;25.00;17.90;;;2.90;99.90;;;;;;5033674;28;20918;-68
2022/03/04 07:57:36;;;;;;;23.83;17.73;;;3.00;99.90;;;;;;5033445;28;20471;-68
2022/03/04 08:00:05;;;;;;;21.60;18.93;;;3.10;99.90;;;;;;5033848;28;20410;-68
2022/03/04 08:02:30;;;;;;;23.63;19.03;;;3.20;99.90;;;;;;5033994;28;20882;-67
2022/03/04 08:04:56;;;;;;;25.83;19.40;;;3.40;99.90;;;;;;5032847;28;20414;-69
2022/03/04 08:07:21;;;;;;;28.77;19.97;;;3.50;99.90;;;;;;5033068;28;20690;-68
2022/03/04 08:09:47;;;;;;;21.47;19.13;;;3.60;99.90;;;;;;5033285;28;20217;-67
2022/03/04 08:12:13;;;;;;;21.93;18.63;;;3.70;99.90;;;;;;5031344;28;20171;-67
2022/03/04 08:14:39;;;;;;;27.80;19.43;;;3.80;99.90;;;;;;5033163;28;20163;-67
2022/03/04 08:17:05;;;;;;;27.53;20.57;;;3.80;99.90;;;;;;5033051;28;20517;-68
2022/03/04 08:19:31;;;;;;;24.10;21.00;;;3.90;99.90;;;;;;5032972;28;20297;-67
2022/03/04 08:21:57;;;;;;;25.43;19.83;;;3.90;99.90;;;;;;5032989;28;20984;-67
2022/03/04 08:24:23;;;;;;;26.57;19.67;;;4.00;99.90;;;;;;5033528;28;20402;-68
2022/03/04 08:26:48;;;;;;;26.23;20.77;;;4.10;99.90;;;;;;5032971;28;20636;-69
2022/03/04 08:29:14;;;;;;;28.77;21.10;;;4.20;99.90;;;;;;5033341;28;20167;-68
2022/03/04 08:31:40;;;;;;;25.67;20.13;;;4.10;99.90;;;;;;5033562;28;20164;-68
2022/03/04 08:34:06;;;;;;;27.13;20.50;;;4.10;99.90;;;;;;5032910;28;20174;-68
2022/03/04 08:36:32;;;;;;;29.40;21.50;;;4.20;99.90;;;;;;5022877;28;20224;-68
2022/03/04 08:39:00;;;;;;;34.47;22.40;;;3.90;99.90;;;;;;5013012;28;20427;-67
2022/03/04 08:41:25;;;;;;;26.40;20.50;;;4.00;99.90;;;;;;5012575;28;20501;-67
2022/03/04 08:43:51;;;;;;;24.30;20.00;;;3.90;99.90;;;;;;5013010;28;20407;-68
2022/03/04 08:46:17;;;;;;;28.63;21.40;;;3.90;99.90;;;;;;5013332;28;20187;-68
2022/03/04 08:48:43;;;;;;;33.90;24.20;;;3.70;99.90;;;;;;5013296;28;20481;-68
2022/03/04 08:51:09;;;;;;;27.90;22.23;;;3.80;99.90;;;;;;5013207;28;20279;-68
2022/03/04 08:53:35;;;;;;;33.03;23.70;;;3.90;99.90;;;;;;5013231;28;20426;-68
2022/03/04 08:56:00;;;;;;;24.63;20.60;;;4.10;99.90;;;;;;5013199;28;20198;-69
2022/03/04 08:58:26;;;;;;;28.33;21.47;;;4.10;99.90;;;;;;5013107;28;20423;-69
2022/03/04 09:00:52;;;;;;;39.50;22.17;;;4.20;99.80;;;;;;5012822;28;20199;-69
2022/03/04 09:03:18;;;;;;;25.23;21.40;;;4.30;99.70;;;;;;5012911;28;20537;-69
2022/03/04 09:05:43;;;;;;;28.53;20.93;;;4.20;99.40;;;;;;5013200;28;20171;-69
2022/03/04 09:08:09;;;;;;;28.70;22.27;;;4.30;99.40;;;;;;5012786;28;20188;-68
2022/03/04 09:10:35;;;;;;;25.40;21.23;;;4.40;99.20;;;;;;5013593;28;20594;-69
2022/03/04 09:13:00;;;;;;;25.70;21.20;;;4.30;99.20;;;;;;5032187;28;20297;-68
2022/03/04 09:15:26;;;;;;;28.90;21.47;;;4.50;99.20;;;;;;5032759;28;20171;-69
2022/03/04 09:17:52;;;;;;;29.40;22.77;;;4.50;98.80;;;;;;5030878;28;20199;-69
2022/03/04 09:20:19;;;;;;;26.87;20.73;;;4.80;98.60;;;;;;5031147;28;20171;-69
2022/03/04 09:22:46;;;;;;;27.53;22.53;;;4.90;98.40;;;;;;5032583;28;20607;-69
2022/03/04 09:25:12;;;;;;;26.37;20.40;;;5.00;97.70;;;;;;5032839;28;20402;-69
2022/03/04 09:27:37;;;;;;;26.70;22.37;;;4.80;97.50;;;;;;5032344;28;20952;-69
2022/03/04 09:30:04;;;;;;;27.90;22.70;;;4.70;97.50;;;;;;5036412;28;20221;-69
2022/03/04 09:32:30;;;;;;;29.37;21.10;;;4.60;97.70;;;;;;5036230;28;20624;-69
2022/03/04 09:34:55;;;;;;;29.00;22.60;;;4.70;98.00;;;;;;5036420;28;20460;-68
2022/03/04 09:37:21;;;;;;;28.77;21.90;;;4.80;97.80;;;;;;5036266;28;20233;-70
2022/03/04 09:39:46;;;;;;;30.13;22.43;;;4.90;97.70;;;;;;5026893;28;20175;-70
2022/03/04 09:42:12;;;;;;;27.30;20.53;;;5.10;97.60;;;;;;5007791;28;20207;-69
2022/03/04 09:44:40;;;;;;;25.77;21.60;;;5.10;97.50;;;;;;4996868;28;20177;-69
2022/03/04 09:47:07;;;;;;;30.63;22.20;;;5.10;97.50;;;;;;5007325;28;20553;-68
2022/03/04 09:49:35;;;;;;;33.33;24.90;;;5.00;97.60;;;;;;5016723;28;20802;-69
2022/03/04 09:52:05;;;;;;;27.73;23.07;;;5.10;97.70;;;;;;5016471;28;20411;-69
2022/03/04 09:54:31;;;;;;;34.93;22.70;;;5.20;97.60;;;;;;5016643;28;20417;-69
2022/03/04 09:56:58;;;;;;;37.67;25.13;;;5.40;97.00;;;;;;5016508;28;20418;-69
2022/03/04 09:59:24;;;;;;;29.93;22.17;;;5.50;97.10;;;;;;5016221;28;20513;-70
2022/03/04 10:01:50;;;;;;;29.60;23.03;;;5.80;96.40;;;;;;5016002;28;20450;-69
2022/03/04 10:04:16;;;;;;;26.50;22.47;;;6.00;96.00;;;;;;5015966;28;20461;-68
2022/03/04 10:06:48;;;;;;;30.03;23.60;;;6.00;95.50;;;;;;5015909;28;20175;-68
2022/03/04 10:09:48;;;;;;;28.30;22.17;;;6.10;95.20;;;;;;5016133;28;20497;-68
2022/03/04 10:12:16;;;;;;;30.50;22.97;;;6.20;94.70;;;;;;5016325;28;20403;-69
2022/03/04 10:15:06;;;;;;;32.20;22.73;;;6.30;94.40;;;;;;5034991;28;20405;-68
2022/03/04 10:17:34;;;;;;;32.13;22.97;;;6.40;94.20;;;;;;5035566;28;20427;-69
2022/03/04 10:20:07;;;;;;;27.93;23.40;;;6.60;94.00;;;;;;5035374;28;20406;-68
2022/03/04 10:22:36;;;;;;;29.40;23.40;;;6.80;94.20;;;;;;5035421;28;20401;-69
2022/03/04 10:25:14;;;;;;;30.87;23.00;;;6.80;93.30;;;;;;5035382;28;20432;-69
2022/03/04 10:27:39;;;;;;;29.03;22.67;;;6.80;93.00;;;;;;5033545;28;20475;-69
2022/03/04 10:30:06;;;;;;;28.07;21.90;;;7.00;92.60;;;;;;5034961;28;20408;-69
2022/03/04 10:32:32;;;;;;;27.70;22.20;;;7.10;91.80;;;;;;5028410;28;20176;-69
2022/03/04 10:35:01;;;;;;;28.27;23.00;;;7.10;92.00;;;;;;5015155;28;20444;-69
2022/03/04 10:37:54;;;;;;;29.47;24.00;;;7.20;91.80;;;;;;5016620;28;20474;-69
2022/03/04 10:40:29;;;;;;;26.13;22.60;;;7.10;91.70;;;;;;5033519;28;20468;-69
2022/03/04 10:43:02;;;;;;;30.27;24.57;;;7.30;92.00;;;;;;5035152;28;20405;-69
2022/03/04 10:45:41;;;;;;;28.53;22.10;;;7.40;91.30;;;;;;5034903;28;20406;-69
2022/03/04 10:48:10;;;;;;;28.47;23.90;;;7.40;90.80;;;;;;5059729;22;20458;-68
2022/03/04 10:50:45;;;;;;;33.20;23.67;;;7.60;90.10;;;;;;5066861;28;20428;-71
2022/03/04 10:53:15;;;;;;;32.70;24.20;;;7.90;89.50;;;;;;5035305;28;20386;-70
2022/03/04 10:55:46;;;;;;;27.70;23.33;;;7.70;89.20;;;;;;5035449;28;20428;-70
2022/03/04 10:58:16;;;;;;;28.20;22.27;;;7.80;88.70;;;;;;5035433;28;20431;-70
2022/03/04 11:00:53;;;;;;;30.47;22.20;;;7.80;88.60;;;;;;5035235;28;20517;-70
2022/03/04 11:03:22;;;;;;;27.33;23.13;;;7.80;88.80;;;;;;5034086;28;20424;-69
2022/03/04 11:05:49;;;;;;;28.83;22.80;;;8.00;86.80;;;;;;5035411;28;20431;-69
2022/03/04 11:08:15;;;;;;;30.70;23.67;;;7.80;85.10;;;;;;5033775;28;20444;-69
2022/03/04 11:10:41;;;;;;;31.60;22.27;;;7.70;84.50;;;;;;5035331;28;20496;-69
2022/03/04 11:13:11;;;;;;;28.87;22.97;;;7.70;84.60;;;;;;5033637;28;20916;-70
2022/03/04 11:15:38;;;;;;;27.80;22.53;;;7.80;83.80;;;;;;5035683;28;20413;-69
2022/03/04 11:18:07;;;;;;;26.83;22.13;;;7.90;83.60;;;;;;5035495;28;20771;-70
2022/03/04 11:20:33;;;;;;;26.00;21.80;;;8.00;83.10;;;;;;5035592;28;20453;-68
2022/03/04 11:22:59;;;;;;;25.60;21.37;;;8.00;83.00;;;;;;5034354;28;20803;-69
2022/03/04 11:25:25;;;;;;;26.40;21.40;;;8.20;82.60;;;;;;5033783;28;20427;-70
2022/03/04 11:27:52;;;;;;;27.47;23.53;;;8.80;80.60;;;;;;5035279;28;20416;-70
2022/03/04 11:30:39;;;;;;;29.83;23.23;;;10.20;76.90;;;;;;5034740;28;20497;-70
2022/03/04 11:33:16;;;;;;;25.23;22.67;;;11.30;73.10;;;;;;5034040;28;20495;-67
2022/03/04 11:35:41;;;;;;;34.97;27.53;;;12.20;68.50;;;;;;5034747;28;20382;-70
2022/03/04 11:38:08;;;;;;;25.50;21.50;;;12.50;65.50;;;;;;5034944;28;20768;-69
2022/03/04 11:40:38;;;;;;;29.53;22.70;;;14.10;60.30;;;;;;5035168;28;20199;-69
2022/03/04 11:43:08;;;;;;;25.10;22.40;;;13.00;60.10;;;;;;5035558;28;20415;-70
2022/03/04 11:45:35;;;;;;;24.17;20.30;;;13.30;60.00;;;;;;5035855;28;20916;-68
2022/03/04 11:48:08;;;;;;;25.63;21.27;;;14.00;58.80;;;;;;5033398;28;20435;-69
2022/03/04 11:50:47;;;;;;;31.30;21.70;;;14.80;54.60;;;;;;5035164;28;20434;-67
2022/03/04 11:53:18;;;;;;;25.50;21.13;;;14.50;56.00;;;;;;5035181;28;20491;-70
2022/03/04 11:56:10;;;;;;;24.73;21.17;;;13.70;55.20;;;;;;5035716;28;20485;-70
2022/03/04 11:58:56;;;;;;;25.80;22.00;;;14.50;54.50;;;;;;5034817;28;20812;-70
2022/03/04 12:01:35;;;;;;;22.13;19.00;;;13.90;53.90;;;;;;5035268;28;20821;-69
2022/03/04 12:04:09;;;;;;;26.37;21.47;;;14.90;52.20;;;;;;5035921;28;20388;-70
2022/03/04 12:06:35;;;;;;;22.07;19.73;;;16.00;51.60;;;;;;5035530;28;20382;-69
2022/03/04 12:09:32;;;;;;;23.63;20.60;;;15.90;50.00;;;;;;5034259;28;20943;-69
2022/03/04 12:12:24;;;;;;;22.63;20.23;;;14.40;49.90;;;;;;5034796;28;20414;-69
2022/03/04 12:14:55;;;;;;;33.20;23.60;;;15.50;50.90;;;;;;5033474;28;20508;-69
2022/03/04 12:17:21;;;;;;;24.60;21.60;;;16.80;49.20;;;;;;5035106;28;20382;-69
2022/03/04 12:19:49;;;;;;;21.20;18.87;;;17.80;45.50;;;;;;5034648;28;20484;-69
2022/03/04 12:22:16;;;;;;;21.90;18.20;;;17.00;44.60;;;;;;5034031;28;20458;-69
2022/03/04 12:24:56;;;;;;;24.67;20.07;;;17.60;45.10;;;;;;5036432;28;20417;-70
2022/03/04 12:27:44;;;;;;;23.40;18.80;;;18.10;43.80;;;;;;5036539;28;20446;-69
2022/03/04 12:30:16;;;;;;;20.63;18.50;;;18.80;43.10;;;;;;5032313;28;20958;-69
2022/03/04 12:32:51;;;;;;;20.80;17.87;;;18.30;40.40;;;;;;5034212;28;20417;-71
2022/03/04 12:35:19;;;;;;;22.43;18.90;;;16.30;41.60;;;;;;5038106;28;20413;-69
2022/03/04 12:37:44;;;;;;;22.50;19.30;;;16.50;42.90;;;;;;5042347;28;20406;-68